sensor_id;sensor_type;location;lat;lon;timestamp;temperature;humidity
13052;DHT22;6592;47.484;9.726;2023-05-10T00:01:27;15.00;99.90
13052;DHT22;6592;47.484;9.726;2023-05-10T00:03:56;15.00;99.90
13052;DHT22;6592;47.484;9.726;2023-05-10T00:06:25;15.00;99.90
13052;DHT22;6592;47.484;9.726;2023-05-10T00:08:55;15.00;99.90
13052;DHT22;6592;47.484;9.726;2023-05-10T00:11:25;15.00;99.90
13052;DHT22;6592;47.484;9.726;2023-05-10T00:13:54;14.90;99.90
13052;DHT22;6592;47.484;9.726;2023-05-10T00:16:22;14.90;99.90
13052;DHT22;6592;47.484;9.726;2023-05-10T00:18:51;14.80;99.90
13052;DHT22;6592;47.484;9.726;2023-05-10T00:21:20;14.80;99.90
13052;DHT22;6592;47.484;9.726;2023-05-10T00:23:49;14.80;99.90
13052;DHT22;6592;47.484;9.726;2023-05-10T00:26:19;14.80;99.90
13052;DHT22;6592;47.484;9.726;2023-05-10T00:28:48;14.70;99.90
13052;DHT22;6592;47.484;9.726;2023-05-10T00:31:16;14.70;99.90
13052;DHT22;6592;47.484;9.726;2023-05-10T00:33:45;14.70;99.90
13052;DHT22;6592;47.484;9.726;2023-05-10T00:36:13;14.60;99.90
13052;DHT22;6592;47.484;9.726;2023-05-10T00:38:42;14.60;99.90
13052;DHT22;6592;47.484;9.726;2023-05-10T00:41:11;14.60;99.90
13052;DHT22;6592;47.484;9.726;2023-05-10T00:43:41;14.60;99.90
13052;DHT22;6592;47.484;9.726;2023-05-10T00:46:10;14.60;99.90
13052;DHT22;6592;47.484;9.726;2023-05-10T00:48:39;14.70;99.90
13052;DHT22;6592;47.484;9.726;2023-05-10T00:51:07;14.60;99.90
13052;DHT22;6592;47.484;9.726;2023-05-10T00:53:36;14.60;99.90
13052;DHT22;6592;47.484;9.726;2023-05-10T00:56:05;14.70;99.90
13052;DHT22;6592;47.484;9.726;2023-05-10T00:58:34;14.60;99.90
13052;DHT22;6592;47.484;9.726;2023-05-10T01:01:04;14.60;99.90
13052;DHT22;6592;47.484;9.726;2023-05-10T01:03:33;14.50;99.90
13052;DHT22;6592;47.484;9.726;2023-05-10T01:06:02;14.50;99.90
13052;DHT22;6592;47.484;9.726;2023-05-10T01:08:31;14.40;99.90
13052;DHT22;6592;47.484;9.726;2023-05-10T01:10:59;14.30;99.90
13052;DHT22;6592;47.484;9.726;2023-05-10T01:13:31;14.30;99.90
13052;DHT22;6592;47.484;9.726;2023-05-10T01:16:01;14.20;99.90
13052;DHT22;6592;47.484;9.726;2023-05-10T01:18:33;14.10;99.90
13052;DHT22;6592;47.484;9.726;2023-05-10T01:21:13;14.10;99.90
13052;DHT22;6592;47.484;9.726;2023-05-10T01:24:06;14.10;99.90
13052;DHT22;6592;47.484;9.726;2023-05-10T01:27:02;14.10;99.90
13052;DHT22;6592;47.484;9.726;2023-05-10T01:30:06;14.00;99.90
13052;DHT22;6592;47.484;9.726;2023-05-10T01:32:49;14.00;99.90
13052;DHT22;6592;47.484;9.726;2023-05-10T01:35:29;14.00;99.90
13052;DHT22;6592;47.484;9.726;2023-05-10T01:38:04;14.00;99.90
13052;DHT22;6592;47.484;9.726;2023-05-10T01:40:39;14.00;99.90
13052;DHT22;6592;47.484;9.726;2023-05-10T01:43:16;14.00;99.90
13052;DHT22;6592;47.484;9.726;2023-05-10T01:45:50;14.00;99.90
13052;DHT22;6592;47.484;9.726;2023-05-10T01:48:26;13.90;99.90
13052;DHT22;6592;47.484;9.726;2023-05-10T01:50:56;13.90;99.90
13052;DHT22;6592;47.484;9.726;2023-05-10T01:53:26;13.80;99.90
13052;DHT22;6592;47.484;9.726;2023-05-10T01:55:55;13.80;99.90
13052;DHT22;6592;47.484;9.726;2023-05-10T01:58:28;13.80;99.90
13052;DHT22;6592;47.484;9.726;2023-05-10T02:00:58;13.80;99.90
13052;DHT22;6592;47.484;9.726;2023-05-10T02:03:29;13.90;99.90
13052;DHT22;6592;47.484;9.726;2023-05-10T02:05:59;13.80;99.90
13052;DHT22;6592;47.484;9.726;2023-05-10T02:08:27;13.80;99.90
13052;DHT22;6592;47.484;9.726;2023-05-10T02:10:57;13.70;99.90
13052;DHT22;6592;47.484;9.726;2023-05-10T02:13:26;13.60;99.90
13052;DHT22;6592;47.484;9.726;2023-05-10T02:15:55;13.60;99.90
13052;DHT22;6592;47.484;9.726;2023-05-10T02:18:25;13.60;99.90
13052;DHT22;6592;47.484;9.726;2023-05-10T02:20:57;13.60;99.90
13052;DHT22;6592;47.484;9.726;2023-05-10T02:23:26;13.60;99.90
13052;DHT22;6592;47.484;9.726;2023-05-10T02:25:55;13.60;99.90
13052;DHT22;6592;47.484;9.726;2023-05-10T02:28:24;13.70;99.90
13052;DHT22;6592;47.484;9.726;2023-05-10T02:30:54;13.70;99.90
13052;DHT22;6592;47.484;9.726;2023-05-10T02:33:23;13.70;99.90
13052;DHT22;6592;47.484;9.726;2023-05-10T02:35:52;13.70;99.90
13052;DHT22;6592;47.484;9.726;2023-05-10T02:38:22;13.70;99.90
13052;DHT22;6592;47.484;9.726;2023-05-10T02:40:53;13.70;99.90
13052;DHT22;6592;47.484;9.726;2023-05-10T02:43:23;13.80;99.90
13052;DHT22;6592;47.484;9.726;2023-05-10T02:45:52;13.80;99.90
13052;DHT22;6592;47.484;9.726;2023-05-10T02:48:20;13.80;99.90
13052;DHT22;6592;47.484;9.726;2023-05-10T02:50:51;13.80;99.90
13052;DHT22;6592;47.484;9.726;2023-05-10T02:53:30;13.80;99.90
13052;DHT22;6592;47.484;9.726;2023-05-10T02:56:01;13.90;99.90
13052;DHT22;6592;47.484;9.726;2023-05-10T02:58:30;13.90;99.90
13052;DHT22;6592;47.484;9.726;2023-05-10T03:00:59;14.10;99.90
13052;DHT22;6592;47.484;9.726;2023-05-10T03:03:27;13.90;99.90
13052;DHT22;6592;47.484;9.726;2023-05-10T03:05:56;14.00;99.90
13052;DHT22;6592;47.484;9.726;2023-05-10T03:08:26;14.00;99.90
13052;DHT22;6592;47.484;9.726;2023-05-10T03:11:15;13.90;99.90
13052;DHT22;6592;47.484;9.726;2023-05-10T03:13:52;13.90;99.90
13052;DHT22;6592;47.484;9.726;2023-05-10T03:16:27;13.90;99.90
13052;DHT22;6592;47.484;9.726;2023-05-10T03:19:01;13.90;99.90
13052;DHT22;6592;47.484;9.726;2023-05-10T03:21:31;13.90;99.90
13052;DHT22;6592;47.484;9.726;2023-05-10T03:24:05;13.90;99.90
13052;DHT22;6592;47.484;9.726;2023-05-10T03:26:35;13.90;99.90
13052;DHT22;6592;47.484;9.726;2023-05-10T03:29:05;13.90;99.90
13052;DHT22;6592;47.484;9.726;2023-05-10T03:31:35;13.90;99.90
13052;DHT22;6592;47.484;9.726;2023-05-10T03:34:03;13.90;99.90
13052;DHT22;6592;47.484;9.726;2023-05-10T03:36:32;13.90;99.90
13052;DHT22;6592;47.484;9.726;2023-05-10T03:39:01;13.90;99.90
13052;DHT22;6592;47.484;9.726;2023-05-10T03:41:30;13.80;99.90
13052;DHT22;6592;47.484;9.726;2023-05-10T03:43:58;13.90;99.90
13052;DHT22;6592;47.484;9.726;2023-05-10T03:46:26;13.90;99.90
13052;DHT22;6592;47.484;9.726;2023-05-10T03:48:55;13.90;99.90
13052;DHT22;6592;47.484;9.726;2023-05-10T03:51:23;14.00;99.90
13052;DHT22;6592;47.484;9.726;2023-05-10T03:53:54;14.00;99.90
13052;DHT22;6592;47.484;9.726;2023-05-10T03:56:24;14.00;99.90
13052;DHT22;6592;47.484;9.726;2023-05-10T03:58:52;14.00;99.90
13052;DHT22;6592;47.484;9.726;2023-05-10T04:01:20;13.90;99.90
13052;DHT22;6592;47.484;9.726;2023-05-10T04:03:48;13.80;99.90
13052;DHT22;6592;47.484;9.726;2023-05-10T04:06:17;13.70;99.90
13052;DHT22;6592;47.484;9.726;2023-05-10T04:08:45;13.80;99.90
13052;DHT22;6592;47.484;9.726;2023-05-10T04:11:13;13.80;99.90
13052;DHT22;6592;47.484;9.726;2023-05-10T04:13:43;13.80;99.90
13052;DHT22;6592;47.484;9.726;2023-05-10T04:16:11;13.80;99.90
13052;DHT22;6592;47.484;9.726;2023-05-10T04:18:39;13.80;99.90
13052;DHT22;6592;47.484;9.726;2023-05-10T04:21:11;13.70;99.90
13052;DHT22;6592;47.484;9.726;2023-05-10T04:23:40;13.70;99.90
13052;DHT22;6592;47.484;9.726;2023-05-10T04:26:09;13.80;99.90
13052;DHT22;6592;47.484;9.726;2023-05-10T04:28:37;13.80;99.90
13052;DHT22;6592;47.484;9.726;2023-05-10T04:31:08;13.90;99.90
13052;DHT22;6592;47.484;9.726;2023-05-10T04:33:37;14.00;99.90
13052;DHT22;6592;47.484;9.726;2023-05-10T04:36:06;14.00;99.90
13052;DHT22;6592;47.484;9.726;2023-05-10T04:38:34;14.00;99.90
13052;DHT22;6592;47.484;9.726;2023-05-10T04:41:05;14.10;99.90
13052;DHT22;6592;47.484;9.726;2023-05-10T04:43:34;14.20;99.90
13052;DHT22;6592;47.484;9.726;2023-05-10T04:46:03;14.20;99.90
13052;DHT22;6592;47.484;9.726;2023-05-10T04:48:33;14.20;99.90
13052;DHT22;6592;47.484;9.726;2023-05-10T04:51:01;14.30;99.90
13052;DHT22;6592;47.484;9.726;2023-05-10T04:53:30;14.30;99.90
13052;DHT22;6592;47.484;9.726;2023-05-10T04:55:59;14.30;99.90
13052;DHT22;6592;47.484;9.726;2023-05-10T04:58:27;14.40;99.90
13052;DHT22;6592;47.484;9.726;2023-05-10T05:00:55;14.40;99.90
13052;DHT22;6592;47.484;9.726;2023-05-10T05:03:23;14.40;99.90
13052;DHT22;6592;47.484;9.726;2023-05-10T05:05:53;14.40;99.90
13052;DHT22;6592;47.484;9.726;2023-05-10T05:08:21;14.50;99.90
13052;DHT22;6592;47.484;9.726;2023-05-10T05:10:50;14.50;99.90
13052;DHT22;6592;47.484;9.726;2023-05-10T05:13:19;14.60;99.90
13052;DHT22;6592;47.484;9.726;2023-05-10T05:15:47;14.60;99.90
13052;DHT22;6592;47.484;9.726;2023-05-10T05:18:15;14.70;99.90
13052;DHT22;6592;47.484;9.726;2023-05-10T05:20:43;14.70;99.90
13052;DHT22;6592;47.484;9.726;2023-05-10T05:23:13;14.70;99.90
13052;DHT22;6592;47.484;9.726;2023-05-10T05:25:41;14.70;99.90
13052;DHT22;6592;47.484;9.726;2023-05-10T05:28:09;14.70;99.90
13052;DHT22;6592;47.484;9.726;2023-05-10T05:30:38;14.80;99.90
13052;DHT22;6592;47.484;9.726;2023-05-10T05:33:06;14.90;99.90
13052;DHT22;6592;47.484;9.726;2023-05-10T05:35:34;15.00;99.90
13052;DHT22;6592;47.484;9.726;2023-05-10T05:38:02;15.00;99.90
13052;DHT22;6592;47.484;9.726;2023-05-10T05:40:32;15.00;99.90
13052;DHT22;6592;47.484;9.726;2023-05-10T05:43:00;15.10;99.90
13052;DHT22;6592;47.484;9.726;2023-05-10T05:45:28;15.10;99.90
13052;DHT22;6592;47.484;9.726;2023-05-10T05:47:56;15.30;99.90
13052;DHT22;6592;47.484;9.726;2023-05-10T05:50:25;15.20;99.90
13052;DHT22;6592;47.484;9.726;2023-05-10T05:52:53;15.20;99.90
13052;DHT22;6592;47.484;9.726;2023-05-10T05:55:22;15.30;99.90
13052;DHT22;6592;47.484;9.726;2023-05-10T05:57:52;15.30;99.90
13052;DHT22;6592;47.484;9.726;2023-05-10T06:00:20;15.40;99.90
13052;DHT22;6592;47.484;9.726;2023-05-10T06:02:49;15.50;99.90
13052;DHT22;6592;47.484;9.726;2023-05-10T06:05:18;15.40;99.90
13052;DHT22;6592;47.484;9.726;2023-05-10T06:07:46;15.40;99.90
13052;DHT22;6592;47.484;9.726;2023-05-10T06:10:15;15.40;99.90
13052;DHT22;6592;47.484;9.726;2023-05-10T06:12:43;15.40;99.90
13052;DHT22;6592;47.484;9.726;2023-05-10T06:15:13;15.40;99.90
13052;DHT22;6592;47.484;9.726;2023-05-10T06:17:42;15.30;99.90
13052;DHT22;6592;47.484;9.726;2023-05-10T06:20:12;15.30;99.90
13052;DHT22;6592;47.484;9.726;2023-05-10T06:22:40;15.10;99.90
13052;DHT22;6592;47.484;9.726;2023-05-10T06:25:09;15.20;99.90
13052;DHT22;6592;47.484;9.726;2023-05-10T06:27:38;15.10;99.90
13052;DHT22;6592;47.484;9.726;2023-05-10T06:30:07;15.10;99.90
13052;DHT22;6592;47.484;9.726;2023-05-10T06:32:41;15.10;99.90
13052;DHT22;6592;47.484;9.726;2023-05-10T06:35:10;15.10;99.90
13052;DHT22;6592;47.484;9.726;2023-05-10T06:37:38;15.00;99.90
13052;DHT22;6592;47.484;9.726;2023-05-10T06:40:07;15.00;99.90
13052;DHT22;6592;47.484;9.726;2023-05-10T06:42:36;15.00;99.90
13052;DHT22;6592;47.484;9.726;2023-05-10T06:45:05;15.00;99.90
13052;DHT22;6592;47.484;9.726;2023-05-10T06:47:33;15.00;99.90
13052;DHT22;6592;47.484;9.726;2023-05-10T06:50:07;15.00;99.90
13052;DHT22;6592;47.484;9.726;2023-05-10T06:52:35;14.90;99.90
13052;DHT22;6592;47.484;9.726;2023-05-10T06:55:05;15.00;99.90
13052;DHT22;6592;47.484;9.726;2023-05-10T06:57:33;15.00;99.90
13052;DHT22;6592;47.484;9.726;2023-05-10T07:00:03;15.10;99.90
13052;DHT22;6592;47.484;9.726;2023-05-10T07:02:32;15.10;99.90
13052;DHT22;6592;47.484;9.726;2023-05-10T07:05:00;15.10;99.90
13052;DHT22;6592;47.484;9.726;2023-05-10T07:07:30;15.20;99.90
13052;DHT22;6592;47.484;9.726;2023-05-10T07:09:59;15.20;99.90
13052;DHT22;6592;47.484;9.726;2023-05-10T07:12:27;15.20;99.90
13052;DHT22;6592;47.484;9.726;2023-05-10T07:14:55;15.20;99.90
13052;DHT22;6592;47.484;9.726;2023-05-10T07:17:23;15.30;99.90
13052;DHT22;6592;47.484;9.726;2023-05-10T07:19:52;15.30;99.90
13052;DHT22;6592;47.484;9.726;2023-05-10T07:22:20;15.30;99.90
13052;DHT22;6592;47.484;9.726;2023-05-10T07:24:50;15.40;99.90
13052;DHT22;6592;47.484;9.726;2023-05-10T07:27:18;15.40;99.90
13052;DHT22;6592;47.484;9.726;2023-05-10T07:29:46;15.60;99.90
13052;DHT22;6592;47.484;9.726;2023-05-10T07:32:15;15.70;99.90
13052;DHT22;6592;47.484;9.726;2023-05-10T07:34:43;15.70;99.90
13052;DHT22;6592;47.484;9.726;2023-05-10T07:37:11;15.80;99.90
13052;DHT22;6592;47.484;9.726;2023-05-10T07:39:40;15.80;99.90
13052;DHT22;6592;47.484;9.726;2023-05-10T07:42:09;15.80;99.90
13052;DHT22;6592;47.484;9.726;2023-05-10T07:44:37;15.80;99.90
13052;DHT22;6592;47.484;9.726;2023-05-10T07:47:06;15.80;99.90
13052;DHT22;6592;47.484;9.726;2023-05-10T07:49:34;15.80;99.90
13052;DHT22;6592;47.484;9.726;2023-05-10T07:52:03;15.80;99.90
13052;DHT22;6592;47.484;9.726;2023-05-10T07:54:31;15.80;99.90
13052;DHT22;6592;47.484;9.726;2023-05-10T07:57:00;15.70;99.90
13052;DHT22;6592;47.484;9.726;2023-05-10T07:59:30;15.60;99.90
13052;DHT22;6592;47.484;9.726;2023-05-10T08:01:59;15.70;99.90
13052;DHT22;6592;47.484;9.726;2023-05-10T08:04:27;15.60;99.90
13052;DHT22;6592;47.484;9.726;2023-05-10T08:06:55;15.60;99.90
13052;DHT22;6592;47.484;9.726;2023-05-10T08:09:23;15.60;99.90
13052;DHT22;6592;47.484;9.726;2023-05-10T08:11:52;15.40;99.90
13052;DHT22;6592;47.484;9.726;2023-05-10T08:14:20;15.40;99.90
13052;DHT22;6592;47.484;9.726;2023-05-10T08:16:49;15.10;99.90
13052;DHT22;6592;47.484;9.726;2023-05-10T08:19:18;15.00;99.90
13052;DHT22;6592;47.484;9.726;2023-05-10T08:21:46;14.90;99.90
13052;DHT22;6592;47.484;9.726;2023-05-10T08:24:15;14.80;99.90
13052;DHT22;6592;47.484;9.726;2023-05-10T08:26:43;14.70;99.90
13052;DHT22;6592;47.484;9.726;2023-05-10T08:29:11;14.60;99.90
13052;DHT22;6592;47.484;9.726;2023-05-10T08:31:39;14.50;99.90
13052;DHT22;6592;47.484;9.726;2023-05-10T08:34:09;14.50;99.90
13052;DHT22;6592;47.484;9.726;2023-05-10T08:36:37;14.50;99.90
13052;DHT22;6592;47.484;9.726;2023-05-10T08:39:05;14.50;99.90
13052;DHT22;6592;47.484;9.726;2023-05-10T08:41:51;14.40;99.90
13052;DHT22;6592;47.484;9.726;2023-05-10T08:44:20;14.40;99.90
13052;DHT22;6592;47.484;9.726;2023-05-10T08:46:50;14.40;99.90
13052;DHT22;6592;47.484;9.726;2023-05-10T08:49:23;14.30;99.90
13052;DHT22;6592;47.484;9.726;2023-05-10T08:51:55;14.20;99.90
13052;DHT22;6592;47.484;9.726;2023-05-10T08:54:24;14.10;99.90
13052;DHT22;6592;47.484;9.726;2023-05-10T08:56:53;14.00;99.90
13052;DHT22;6592;47.484;9.726;2023-05-10T08:59:22;14.00;99.90
13052;DHT22;6592;47.484;9.726;2023-05-10T09:01:50;14.10;99.90
13052;DHT22;6592;47.484;9.726;2023-05-10T09:04:22;14.10;99.90
13052;DHT22;6592;47.484;9.726;2023-05-10T09:06:51;14.00;99.90
13052;DHT22;6592;47.484;9.726;2023-05-10T09:09:19;13.90;99.90
13052;DHT22;6592;47.484;9.726;2023-05-10T09:11:48;14.00;99.90
13052;DHT22;6592;47.484;9.726;2023-05-10T09:14:16;14.00;99.90
13052;DHT22;6592;47.484;9.726;2023-05-10T09:16:45;14.10;99.90
13052;DHT22;6592;47.484;9.726;2023-05-10T09:19:14;14.10;99.90
13052;DHT22;6592;47.484;9.726;2023-05-10T09:21:44;14.00;99.90
13052;DHT22;6592;47.484;9.726;2023-05-10T09:24:12;14.10;99.90
13052;DHT22;6592;47.484;9.726;2023-05-10T09:26:46;14.00;99.90
13052;DHT22;6592;47.484;9.726;2023-05-10T09:29:15;14.00;99.90
13052;DHT22;6592;47.484;9.726;2023-05-10T09:31:46;14.10;99.90
13052;DHT22;6592;47.484;9.726;2023-05-10T09:34:18;14.10;99.90
13052;DHT22;6592;47.484;9.726;2023-05-10T09:36:53;14.10;99.90
13052;DHT22;6592;47.484;9.726;2023-05-10T09:39:30;14.10;99.90
13052;DHT22;6592;47.484;9.726;2023-05-10T09:41:59;14.10;99.90
13052;DHT22;6592;47.484;9.726;2023-05-10T09:44:31;14.10;99.90
13052;DHT22;6592;47.484;9.726;2023-05-10T09:46:59;14.00;99.90
13052;DHT22;6592;47.484;9.726;2023-05-10T09:49:28;13.90;99.90
13052;DHT22;6592;47.484;9.726;2023-05-10T09:52:05;13.90;99.90
13052;DHT22;6592;47.484;9.726;2023-05-10T09:54:34;13.80;99.90
13052;DHT22;6592;47.484;9.726;2023-05-10T09:57:03;13.90;99.90
13052;DHT22;6592;47.484;9.726;2023-05-10T09:59:33;14.00;99.90
13052;DHT22;6592;47.484;9.726;2023-05-10T10:02:02;14.10;99.90
13052;DHT22;6592;47.484;9.726;2023-05-10T10:04:30;14.20;99.90
13052;DHT22;6592;47.484;9.726;2023-05-10T10:07:00;14.20;99.90
13052;DHT22;6592;47.484;9.726;2023-05-10T10:09:31;14.10;99.90
13052;DHT22;6592;47.484;9.726;2023-05-10T10:11:59;14.10;99.90
13052;DHT22;6592;47.484;9.726;2023-05-10T10:14:28;14.10;99.90
13052;DHT22;6592;47.484;9.726;2023-05-10T10:16:57;14.10;99.90
13052;DHT22;6592;47.484;9.726;2023-05-10T10:19:33;14.10;99.90
13052;DHT22;6592;47.484;9.726;2023-05-10T10:22:02;14.20;99.90
13052;DHT22;6592;47.484;9.726;2023-05-10T10:24:32;14.20;99.90
13052;DHT22;6592;47.484;9.726;2023-05-10T10:27:09;14.20;99.90
13052;DHT22;6592;47.484;9.726;2023-05-10T10:29:50;14.10;99.90
13052;DHT22;6592;47.484;9.726;2023-05-10T10:32:26;14.10;99.90
13052;DHT22;6592;47.484;9.726;2023-05-10T10:34:56;14.20;99.90
13052;DHT22;6592;47.484;9.726;2023-05-10T10:37:42;14.20;99.90
13052;DHT22;6592;47.484;9.726;2023-05-10T10:40:28;14.20;99.90
13052;DHT22;6592;47.484;9.726;2023-05-10T10:43:21;14.30;99.90
13052;DHT22;6592;47.484;9.726;2023-05-10T10:46:11;14.20;99.90
13052;DHT22;6592;47.484;9.726;2023-05-10T10:48:40;14.10;99.90
13052;DHT22;6592;47.484;9.726;2023-05-10T10:51:09;14.00;99.90
13052;DHT22;6592;47.484;9.726;2023-05-10T10:53:40;14.00;99.90
13052;DHT22;6592;47.484;9.726;2023-05-10T10:56:11;14.00;99.90
13052;DHT22;6592;47.484;9.726;2023-05-10T10:58:49;13.90;99.90
13052;DHT22;6592;47.484;9.726;2023-05-10T11:01:18;14.00;99.90
13052;DHT22;6592;47.484;9.726;2023-05-10T11:04:18;14.10;99.90
13052;DHT22;6592;47.484;9.726;2023-05-10T11:06:47;14.20;99.90
13052;DHT22;6592;47.484;9.726;2023-05-10T11:09:15;14.30;99.90
13052;DHT22;6592;47.484;9.726;2023-05-10T11:11:53;14.40;99.90
13052;DHT22;6592;47.484;9.726;2023-05-10T11:14:22;14.40;99.90
13052;DHT22;6592;47.484;9.726;2023-05-10T11:16:51;14.60;99.90
13052;DHT22;6592;47.484;9.726;2023-05-10T11:19:19;14.60;99.90
13052;DHT22;6592;47.484;9.726;2023-05-10T11:21:48;14.60;99.90
13052;DHT22;6592;47.484;9.726;2023-05-10T11:24:19;14.60;99.90
13052;DHT22;6592;47.484;9.726;2023-05-10T11:26:50;14.70;99.90
13052;DHT22;6592;47.484;9.726;2023-05-10T11:29:20;14.70;99.90
13052;DHT22;6592;47.484;9.726;2023-05-10T11:31:50;14.70;99.90
13052;DHT22;6592;47.484;9.726;2023-05-10T11:34:25;14.80;99.90
13052;DHT22;6592;47.484;9.726;2023-05-10T11:36:55;14.80;99.90
13052;DHT22;6592;47.484;9.726;2023-05-10T11:39:26;15.00;99.90
13052;DHT22;6592;47.484;9.726;2023-05-10T11:41:55;15.10;99.90
13052;DHT22;6592;47.484;9.726;2023-05-10T11:44:29;15.20;99.90
13052;DHT22;6592;47.484;9.726;2023-05-10T11:46:59;15.30;99.90
13052;DHT22;6592;47.484;9.726;2023-05-10T11:49:28;15.30;99.90
13052;DHT22;6592;47.484;9.726;2023-05-10T11:52:04;15.30;99.90
13052;DHT22;6592;47.484;9.726;2023-05-10T11:54:33;15.50;99.90
13052;DHT22;6592;47.484;9.726;2023-05-10T11:57:02;15.60;99.90
13052;DHT22;6592;47.484;9.726;2023-05-10T11:59:31;15.50;99.90
13052;DHT22;6592;47.484;9.726;2023-05-10T12:02:00;15.50;99.90
13052;DHT22;6592;47.484;9.726;2023-05-10T12:04:28;15.50;99.90
13052;DHT22;6592;47.484;9.726;2023-05-10T12:06:57;15.40;99.90
13052;DHT22;6592;47.484;9.726;2023-05-10T12:09:25;15.50;99.90
13052;DHT22;6592;47.484;9.726;2023-05-10T12:11:56;15.60;99.90
13052;DHT22;6592;47.484;9.726;2023-05-10T12:14:24;15.60;99.90
13052;DHT22;6592;47.484;9.726;2023-05-10T12:16:57;15.60;99.90
13052;DHT22;6592;47.484;9.726;2023-05-10T12:19:25;15.60;99.90
13052;DHT22;6592;47.484;9.726;2023-05-10T12:21:53;15.70;99.90
13052;DHT22;6592;47.484;9.726;2023-05-10T12:24:21;15.70;99.90
13052;DHT22;6592;47.484;9.726;2023-05-10T12:26:51;15.70;99.90
13052;DHT22;6592;47.484;9.726;2023-05-10T12:29:19;15.90;99.90
13052;DHT22;6592;47.484;9.726;2023-05-10T12:31:54;15.90;99.90
13052;DHT22;6592;47.484;9.726;2023-05-10T12:34:26;15.90;99.90
13052;DHT22;6592;47.484;9.726;2023-05-10T12:36:55;15.80;99.90
13052;DHT22;6592;47.484;9.726;2023-05-10T12:39:23;15.70;99.90
13052;DHT22;6592;47.484;9.726;2023-05-10T12:41:52;15.60;99.90
13052;DHT22;6592;47.484;9.726;2023-05-10T12:44:20;15.60;99.90
13052;DHT22;6592;47.484;9.726;2023-05-10T12:46:48;15.50;99.90
13052;DHT22;6592;47.484;9.726;2023-05-10T12:49:18;15.20;99.90
13052;DHT22;6592;47.484;9.726;2023-05-10T12:51:46;15.20;99.90
13052;DHT22;6592;47.484;9.726;2023-05-10T12:54:14;15.30;99.90
13052;DHT22;6592;47.484;9.726;2023-05-10T12:56:43;15.40;99.90
13052;DHT22;6592;47.484;9.726;2023-05-10T12:59:11;15.40;99.90
13052;DHT22;6592;47.484;9.726;2023-05-10T13:01:39;15.40;99.90
13052;DHT22;6592;47.484;9.726;2023-05-10T13:04:08;15.50;99.90
13052;DHT22;6592;47.484;9.726;2023-05-10T13:06:39;15.40;99.90
13052;DHT22;6592;47.484;9.726;2023-05-10T13:09:07;15.40;99.90
13052;DHT22;6592;47.484;9.726;2023-05-10T13:11:35;15.30;99.90
13052;DHT22;6592;47.484;9.726;2023-05-10T13:14:03;15.20;99.90
13052;DHT22;6592;47.484;9.726;2023-05-10T13:16:32;15.10;99.90
13052;DHT22;6592;47.484;9.726;2023-05-10T13:19:00;15.20;99.90
13052;DHT22;6592;47.484;9.726;2023-05-10T13:21:28;15.20;99.90
13052;DHT22;6592;47.484;9.726;2023-05-10T13:23:58;15.20;99.90
13052;DHT22;6592;47.484;9.726;2023-05-10T13:26:27;15.30;99.90
13052;DHT22;6592;47.484;9.726;2023-05-10T13:28:55;15.20;99.90
13052;DHT22;6592;47.484;9.726;2023-05-10T13:31:23;15.20;99.90
13052;DHT22;6592;47.484;9.726;2023-05-10T13:33:52;15.20;99.90
13052;DHT22;6592;47.484;9.726;2023-05-10T13:36:20;15.20;99.90
13052;DHT22;6592;47.484;9.726;2023-05-10T13:38:49;15.10;99.90
13052;DHT22;6592;47.484;9.726;2023-05-10T13:41:19;15.00;99.90
13052;DHT22;6592;47.484;9.726;2023-05-10T13:43:47;14.90;99.90
13052;DHT22;6592;47.484;9.726;2023-05-10T13:46:16;14.90;99.90
13052;DHT22;6592;47.484;9.726;2023-05-10T13:48:44;14.90;99.90
13052;DHT22;6592;47.484;9.726;2023-05-10T13:51:12;14.90;99.90
13052;DHT22;6592;47.484;9.726;2023-05-10T13:53:40;14.80;99.90
13052;DHT22;6592;47.484;9.726;2023-05-10T13:56:09;14.80;99.90
13052;DHT22;6592;47.484;9.726;2023-05-10T13:58:38;14.70;99.90
13052;DHT22;6592;47.484;9.726;2023-05-10T14:01:07;14.70;99.90
13052;DHT22;6592;47.484;9.726;2023-05-10T14:03:35;14.60;99.90
13052;DHT22;6592;47.484;9.726;2023-05-10T14:06:04;14.60;99.90
13052;DHT22;6592;47.484;9.726;2023-05-10T14:08:34;14.40;99.90
13052;DHT22;6592;47.484;9.726;2023-05-10T14:11:03;14.20;99.90
13052;DHT22;6592;47.484;9.726;2023-05-10T14:13:31;14.20;99.90
13052;DHT22;6592;47.484;9.726;2023-05-10T14:16:01;14.30;99.90
13052;DHT22;6592;47.484;9.726;2023-05-10T14:18:29;14.30;99.90
13052;DHT22;6592;47.484;9.726;2023-05-10T14:20:57;14.40;99.90
13052;DHT22;6592;47.484;9.726;2023-05-10T14:23:26;14.50;99.90
13052;DHT22;6592;47.484;9.726;2023-05-10T14:25:55;14.40;99.90
13052;DHT22;6592;47.484;9.726;2023-05-10T14:28:24;14.30;99.90
13052;DHT22;6592;47.484;9.726;2023-05-10T14:30:52;14.20;99.90
13052;DHT22;6592;47.484;9.726;2023-05-10T14:33:22;14.20;99.90
13052;DHT22;6592;47.484;9.726;2023-05-10T14:35:50;14.20;99.90
13052;DHT22;6592;47.484;9.726;2023-05-10T14:38:18;14.30;99.90
13052;DHT22;6592;47.484;9.726;2023-05-10T14:40:47;14.40;99.90
13052;DHT22;6592;47.484;9.726;2023-05-10T14:43:15;14.40;99.90
13052;DHT22;6592;47.484;9.726;2023-05-10T14:45:43;14.40;99.90
13052;DHT22;6592;47.484;9.726;2023-05-10T14:48:12;14.30;99.90
13052;DHT22;6592;47.484;9.726;2023-05-10T14:50:43;14.40;99.90
13052;DHT22;6592;47.484;9.726;2023-05-10T14:53:12;14.30;99.90
13052;DHT22;6592;47.484;9.726;2023-05-10T14:55:40;14.40;99.90
13052;DHT22;6592;47.484;9.726;2023-05-10T14:58:08;14.30;99.90
13052;DHT22;6592;47.484;9.726;2023-05-10T15:00:36;14.20;99.90
13052;DHT22;6592;47.484;9.726;2023-05-10T15:03:05;14.20;99.90
13052;DHT22;6592;47.484;9.726;2023-05-10T15:05:33;14.20;99.90
13052;DHT22;6592;47.484;9.726;2023-05-10T15:08:05;14.20;99.90
13052;DHT22;6592;47.484;9.726;2023-05-10T15:10:33;14.10;99.90
13052;DHT22;6592;47.484;9.726;2023-05-10T15:13:04;14.10;99.90
13052;DHT22;6592;47.484;9.726;2023-05-10T15:15:32;14.10;99.90
13052;DHT22;6592;47.484;9.726;2023-05-10T15:18:00;14.10;99.90
13052;DHT22;6592;47.484;9.726;2023-05-10T15:20:29;14.10;99.90
13052;DHT22;6592;47.484;9.726;2023-05-10T15:22:57;14.20;99.90
13052;DHT22;6592;47.484;9.726;2023-05-10T15:25:26;14.10;99.90
13052;DHT22;6592;47.484;9.726;2023-05-10T15:27:55;14.20;99.90
13052;DHT22;6592;47.484;9.726;2023-05-10T15:30:23;14.30;99.90
13052;DHT22;6592;47.484;9.726;2023-05-10T15:32:52;14.30;99.90
13052;DHT22;6592;47.484;9.726;2023-05-10T15:35:20;14.40;99.90
13052;DHT22;6592;47.484;9.726;2023-05-10T15:37:49;14.40;99.90
13052;DHT22;6592;47.484;9.726;2023-05-10T15:40:17;14.40;99.90
13052;DHT22;6592;47.484;9.726;2023-05-10T15:42:46;14.40;99.90
13052;DHT22;6592;47.484;9.726;2023-05-10T15:45:15;14.30;99.90
13052;DHT22;6592;47.484;9.726;2023-05-10T15:47:43;14.30;99.90
13052;DHT22;6592;47.484;9.726;2023-05-10T15:50:12;14.40;99.90
13052;DHT22;6592;47.484;9.726;2023-05-10T15:52:40;14.30;99.90
13052;DHT22;6592;47.484;9.726;2023-05-10T15:55:09;14.30;99.90
13052;DHT22;6592;47.484;9.726;2023-05-10T15:57:39;14.30;99.90
13052;DHT22;6592;47.484;9.726;2023-05-10T16:00:11;14.30;99.90
13052;DHT22;6592;47.484;9.726;2023-05-10T16:02:39;14.30;99.90